Time;durP1;ratioP1;P1;durP2;ratioP2;P2;SDS_P1;SDS_P2;PMS_P1;PMS_P2;Temp;Humidity;BMP_temperature;BMP_pressure;BME280_temperature;BME280_humidity;BME280_pressure;Samples;Min_cycle;Max_cycle;Signal;HPM_P1;HPM_P2
2022/03/14 00:00:04;;;;;;;23.40;13.13;;;7.90;57.60;;;;;;5043388;28;20678;-78
2022/03/14 00:02:34;;;;;;;24.60;13.87;;;7.80;57.70;;;;;;5045033;28;20258;-78
2022/03/14 00:05:04;;;;;;;23.83;12.73;;;7.80;57.90;;;;;;5046181;28;20232;-78
2022/03/14 00:07:35;;;;;;;28.77;13.70;;;7.80;58.10;;;;;;5043986;28;20205;-78
2022/03/14 00:10:03;;;;;;;25.77;14.23;;;7.80;58.10;;;;;;5044395;28;20442;-78
2022/03/14 00:12:32;;;;;;;26.23;13.90;;;7.70;58.10;;;;;;5043425;28;20263;-78
2022/03/14 00:15:03;;;;;;;26.52;15.00;;;7.70;58.10;;;;;;5043202;28;21121;-78
2022/03/14 00:17:35;;;;;;;24.63;13.13;;;7.70;58.30;;;;;;5042818;28;20194;-78
2022/03/14 00:20:04;;;;;;;26.43;12.90;;;7.70;58.50;;;;;;5042609;28;20197;-77
2022/03/14 00:22:32;;;;;;;24.97;13.47;;;7.70;58.60;;;;;;5043948;28;20198;-77
2022/03/14 00:25:00;;;;;;;23.43;12.87;;;7.60;58.60;;;;;;5043434;28;20332;-77
2022/03/14 00:27:31;;;;;;;24.93;13.73;;;7.60;59.40;;;;;;5044552;28;20212;-77
2022/03/14 00:29:59;;;;;;;21.60;12.67;;;7.60;58.80;;;;;;5045082;28;20199;-77
2022/03/14 00:32:28;;;;;;;23.03;12.23;;;7.60;58.90;;;;;;5045359;28;20200;-78
2022/03/14 00:34:57;;;;;;;27.60;13.07;;;7.50;59.00;;;;;;5043722;28;20203;-77
2022/03/14 00:37:26;;;;;;;27.03;13.10;;;7.50;59.10;;;;;;5045120;28;20208;-78
2022/03/14 00:39:55;;;;;;;29.37;14.33;;;7.50;59.20;;;;;;5044100;28;20228;-78
2022/03/14 00:42:27;;;;;;;21.57;12.93;;;7.40;59.30;;;;;;5043904;28;20207;-79
2022/03/14 00:44:55;;;;;;;27.40;13.70;;;7.40;59.40;;;;;;5042397;28;20212;-78
2022/03/14 00:47:24;;;;;;;28.47;13.53;;;7.40;59.50;;;;;;5042463;28;20745;-78
2022/03/14 00:49:53;;;;;;;23.93;13.03;;;7.30;59.50;;;;;;5041975;28;20323;-79
2022/03/14 00:52:23;;;;;;;22.90;13.50;;;7.30;59.60;;;;;;5043326;28;20203;-79
2022/03/14 00:54:51;;;;;;;24.77;13.57;;;7.30;59.70;;;;;;5042746;28;20200;-78
2022/03/14 00:57:20;;;;;;;27.50;12.63;;;7.20;59.80;;;;;;5043882;28;20775;-78
2022/03/14 00:59:48;;;;;;;24.57;13.27;;;7.20;59.90;;;;;;5044469;28;20200;-78
2022/03/14 01:02:16;;;;;;;23.57;12.20;;;7.20;60.00;;;;;;5044679;28;20200;-77
2022/03/14 01:04:45;;;;;;;26.37;13.53;;;7.20;60.20;;;;;;5044163;28;20203;-78
2022/03/14 01:07:13;;;;;;;25.03;13.50;;;7.10;60.40;;;;;;5042611;28;20206;-78
2022/03/14 01:09:43;;;;;;;26.10;13.77;;;7.10;60.50;;;;;;5044384;28;20529;-77
2022/03/14 01:12:11;;;;;;;26.83;13.50;;;7.10;60.70;;;;;;5042182;28;20202;-78
2022/03/14 01:14:41;;;;;;;25.73;13.70;;;7.00;60.80;;;;;;5040617;28;20203;-78
2022/03/14 01:17:10;;;;;;;25.73;13.80;;;7.00;60.70;;;;;;5043615;28;20191;-77
2022/03/14 01:19:38;;;;;;;25.97;12.70;;;7.00;60.80;;;;;;5043057;28;20204;-77
2022/03/14 01:22:10;;;;;;;24.43;13.27;;;7.00;60.90;;;;;;5043975;28;20200;-78
2022/03/14 01:24:43;;;;;;;24.73;13.90;;;7.00;61.00;;;;;;5043067;28;20191;-78
2022/03/14 01:27:12;;;;;;;25.57;14.07;;;7.00;61.00;;;;;;5041985;28;20442;-78
2022/03/14 01:29:40;;;;;;;25.10;14.00;;;6.90;61.00;;;;;;5042241;28;20203;-78
2022/03/14 01:32:10;;;;;;;23.77;13.13;;;6.90;61.00;;;;;;5041620;28;20766;-78
2022/03/14 01:34:38;;;;;;;25.83;13.90;;;6.90;61.20;;;;;;5043320;28;20293;-78
2022/03/14 01:37:06;;;;;;;25.43;13.90;;;6.90;61.40;;;;;;5042513;28;20283;-78
2022/03/14 01:39:35;;;;;;;28.30;13.97;;;6.90;61.60;;;;;;5041871;28;20205;-77
2022/03/14 01:42:05;;;;;;;33.83;17.67;;;6.90;61.70;;;;;;5043473;28;20812;-78
2022/03/14 01:44:34;;;;;;;36.40;18.70;;;6.90;62.10;;;;;;5041570;28;20198;-77
2022/03/14 01:47:02;;;;;;;39.00;21.57;;;6.90;62.10;;;;;;5042078;28;20260;-78
2022/03/14 01:49:31;;;;;;;48.33;23.53;;;6.90;62.20;;;;;;5041804;28;20882;-77
2022/03/14 01:51:59;;;;;;;41.73;21.90;;;6.90;62.20;;;;;;5043666;28;20201;-77
2022/03/14 01:54:28;;;;;;;39.87;20.77;;;6.90;62.20;;;;;;5042595;28;20738;-77
2022/03/14 01:56:57;;;;;;;31.20;18.60;;;6.90;62.50;;;;;;5042889;28;20195;-77
2022/03/14 01:59:29;;;;;;;31.13;18.27;;;6.90;62.40;;;;;;5042459;28;20194;-77
2022/03/14 02:01:57;;;;;;;31.83;16.10;;;6.80;62.30;;;;;;5043578;28;20195;-77
2022/03/14 02:04:26;;;;;;;31.90;17.33;;;6.80;62.30;;;;;;5043506;28;20203;-78
2022/03/14 02:06:57;;;;;;;31.97;16.30;;;6.80;62.20;;;;;;5042270;28;20215;-78
2022/03/14 02:09:25;;;;;;;32.53;15.67;;;6.80;62.20;;;;;;5041930;28;20814;-78
2022/03/14 02:12:06;;;;;;;27.57;15.90;;;6.90;62.30;;;;;;5043667;28;20690;-79
2022/03/14 02:14:39;;;;;;;31.93;15.33;;;6.80;62.30;;;;;;5041710;28;20202;-79
2022/03/14 02:17:09;;;;;;;34.40;17.73;;;6.80;62.30;;;;;;5043231;28;20191;-78
2022/03/14 02:19:38;;;;;;;28.17;16.77;;;6.80;62.40;;;;;;5041452;28;20213;-77
2022/03/14 02:22:13;;;;;;;27.70;15.33;;;6.90;62.50;;;;;;5043625;28;20199;-77
2022/03/14 02:24:42;;;;;;;29.17;15.40;;;6.90;62.50;;;;;;5040957;28;20285;-77
2022/03/14 02:27:11;;;;;;;25.27;14.93;;;6.90;62.70;;;;;;5042078;28;20229;-78
2022/03/14 02:29:40;;;;;;;28.13;15.30;;;6.90;62.80;;;;;;5043301;28;20197;-77
2022/03/14 02:32:11;;;;;;;23.53;14.50;;;6.90;62.90;;;;;;5042435;28;20210;-76
2022/03/14 02:34:39;;;;;;;24.50;13.83;;;6.90;62.90;;;;;;5041292;28;20233;-77
2022/03/14 02:37:09;;;;;;;24.93;15.07;;;6.80;62.70;;;;;;5042261;28;20255;-77
2022/03/14 02:39:40;;;;;;;30.50;16.55;;;6.80;62.70;;;;;;5040226;28;20453;-77
2022/03/14 02:42:09;;;;;;;27.83;15.03;;;6.80;63.40;;;;;;5041456;28;20191;-78
2022/03/14 02:44:43;;;;;;;25.10;13.97;;;6.90;63.50;;;;;;5040494;28;20263;-77
2022/03/14 02:47:12;;;;;;;28.87;15.57;;;6.90;63.60;;;;;;5041738;28;20203;-77
2022/03/14 02:49:41;;;;;;;30.13;14.53;;;6.80;64.50;;;;;;5045036;28;20203;-77
2022/03/14 02:52:11;;;;;;;27.23;15.60;;;6.80;63.50;;;;;;5046381;28;20204;-77
2022/03/14 02:54:40;;;;;;;25.63;15.07;;;6.80;63.60;;;;;;5044148;28;20220;-77
2022/03/14 02:57:08;;;;;;;30.37;15.37;;;6.80;63.80;;;;;;5045597;28;20206;-76
2022/03/14 02:59:37;;;;;;;29.03;14.77;;;6.80;63.80;;;;;;5045893;28;20199;-77
2022/03/14 03:02:05;;;;;;;26.70;14.93;;;6.80;64.20;;;;;;5044218;28;20199;-77
2022/03/14 03:04:34;;;;;;;25.37;14.40;;;6.80;64.20;;;;;;5044669;28;20926;-77
2022/03/14 03:07:03;;;;;;;25.07;14.20;;;6.80;64.10;;;;;;5046270;28;20651;-77
2022/03/14 03:09:32;;;;;;;23.73;13.00;;;6.80;63.90;;;;;;5046471;28;20547;-77
2022/03/14 03:12:02;;;;;;;22.87;13.57;;;6.80;64.00;;;;;;5045064;28;20578;-76
2022/03/14 03:14:31;;;;;;;30.13;14.57;;;6.80;63.90;;;;;;5045549;28;20691;-77
2022/03/14 03:17:00;;;;;;;25.60;13.20;;;6.80;64.20;;;;;;5045542;28;20221;-78
2022/03/14 03:19:29;;;;;;;29.97;14.27;;;6.80;64.10;;;;;;5044430;28;20764;-78
2022/03/14 03:21:57;;;;;;;26.60;14.13;;;6.80;64.10;;;;;;5045372;28;20579;-77
2022/03/14 03:24:26;;;;;;;27.27;14.57;;;6.80;64.10;;;;;;5044640;28;20210;-77
2022/03/14 03:26:56;;;;;;;31.37;15.77;;;6.80;64.10;;;;;;5042928;28;20208;-77
2022/03/14 03:29:25;;;;;;;24.00;13.23;;;6.90;63.90;;;;;;5045180;28;20202;-78
2022/03/14 03:31:53;;;;;;;29.37;13.90;;;6.90;64.00;;;;;;5045824;28;20231;-77
2022/03/14 03:34:22;;;;;;;23.73;13.57;;;6.90;64.10;;;;;;5045384;28;20226;-77
2022/03/14 03:36:50;;;;;;;24.23;13.83;;;6.90;64.10;;;;;;5045095;28;20570;-77
2022/03/14 03:39:18;;;;;;;23.07;13.47;;;6.90;64.10;;;;;;5045775;28;20242;-77
2022/03/14 03:41:47;;;;;;;24.47;13.90;;;6.90;64.00;;;;;;5045882;28;20203;-77
2022/03/14 03:44:16;;;;;;;24.97;13.70;;;6.90;63.90;;;;;;5043752;28;20199;-77
2022/03/14 03:46:45;;;;;;;23.43;13.30;;;6.90;63.80;;;;;;5044707;28;20248;-78
2022/03/14 03:49:13;;;;;;;23.13;13.47;;;6.90;63.80;;;;;;5042717;28;20231;-77
2022/03/14 03:51:41;;;;;;;23.07;13.30;;;6.90;63.70;;;;;;5044185;28;20666;-78
2022/03/14 03:54:10;;;;;;;24.03;12.70;;;6.90;63.80;;;;;;5044565;28;20211;-77
2022/03/14 03:56:39;;;;;;;20.47;12.67;;;6.90;63.80;;;;;;5044790;28;20555;-77
2022/03/14 03:59:08;;;;;;;26.53;12.77;;;7.00;63.80;;;;;;5044836;28;20206;-77
2022/03/14 04:01:37;;;;;;;23.80;12.37;;;7.00;63.90;;;;;;5044034;28;20229;-76
2022/03/14 04:04:09;;;;;;;24.57;13.13;;;7.00;64.20;;;;;;5043049;28;20228;-77
2022/03/14 04:06:41;;;;;;;25.57;13.93;;;6.90;64.30;;;;;;5043844;28;20281;-76
2022/03/14 04:09:09;;;;;;;23.47;13.47;;;6.90;64.30;;;;;;5045695;28;20186;-78
2022/03/14 04:11:39;;;;;;;22.03;12.67;;;6.90;64.40;;;;;;5042847;28;20226;-77
2022/03/14 04:14:09;;;;;;;24.43;12.50;;;6.90;64.70;;;;;;5043110;28;20205;-77
2022/03/14 04:16:41;;;;;;;23.37;13.33;;;6.90;64.80;;;;;;5044641;28;20567;-77
2022/03/14 04:19:09;;;;;;;24.40;13.00;;;6.90;64.70;;;;;;5043919;28;20191;-78
2022/03/14 04:21:40;;;;;;;26.60;13.80;;;6.90;65.40;;;;;;5044915;28;20200;-78
2022/03/14 04:24:08;;;;;;;26.07;13.37;;;6.90;64.70;;;;;;5045426;28;20819;-76
2022/03/14 04:26:39;;;;;;;24.33;13.40;;;6.90;64.70;;;;;;5047010;28;20309;-77
2022/03/14 04:29:08;;;;;;;28.00;13.37;;;6.90;64.70;;;;;;5047614;28;20210;-79
2022/03/14 04:31:38;;;;;;;24.10;13.63;;;6.90;64.70;;;;;;5045008;28;20210;-78
2022/03/14 04:34:07;;;;;;;24.57;14.17;;;6.90;64.70;;;;;;5045498;28;20191;-76
2022/03/14 04:36:36;;;;;;;25.57;13.87;;;7.00;64.60;;;;;;5046269;28;20195;-77
2022/03/14 04:39:06;;;;;;;36.80;14.23;;;7.00;64.60;;;;;;5042303;28;20209;-77
2022/03/14 04:41:37;;;;;;;27.17;14.07;;;7.00;64.80;;;;;;5043613;28;20199;-76
2022/03/14 04:44:06;;;;;;;29.33;14.53;;;7.00;64.80;;;;;;5042865;28;20201;-77
2022/03/14 04:46:35;;;;;;;26.40;13.20;;;7.00;64.80;;;;;;5044506;28;20611;-77
2022/03/14 04:49:05;;;;;;;31.73;16.73;;;7.00;65.00;;;;;;5043012;28;20198;-77
2022/03/14 04:51:34;;;;;;;30.13;15.73;;;7.00;65.00;;;;;;5043156;28;20201;-75
2022/03/14 04:54:02;;;;;;;31.20;16.00;;;7.00;64.80;;;;;;5044422;28;20230;-77
2022/03/14 04:56:31;;;;;;;30.03;16.33;;;7.00;64.90;;;;;;5044389;28;20202;-77
2022/03/14 04:58:59;;;;;;;26.90;14.63;;;7.00;65.00;;;;;;5045271;28;20202;-77
2022/03/14 05:01:27;;;;;;;31.03;15.03;;;7.00;65.00;;;;;;5042069;28;20199;-78
2022/03/14 05:03:56;;;;;;;32.93;15.40;;;7.00;65.00;;;;;;5044271;28;20246;-78
2022/03/14 05:06:26;;;;;;;32.30;15.73;;;7.00;64.80;;;;;;5042380;28;20200;-77
2022/03/14 05:08:55;;;;;;;32.07;16.17;;;7.10;64.80;;;;;;5044271;28;20778;-76
2022/03/14 05:11:23;;;;;;;30.40;15.70;;;7.10;64.90;;;;;;5044322;28;20203;-77
2022/03/14 05:13:52;;;;;;;26.70;14.80;;;7.00;64.80;;;;;;5043431;28;20236;-77
2022/03/14 05:16:20;;;;;;;28.70;14.90;;;7.10;64.80;;;;;;5041878;28;20813;-78
2022/03/14 05:18:49;;;;;;;29.07;14.93;;;7.10;64.70;;;;;;5042223;28;20196;-77
2022/03/14 05:21:18;;;;;;;37.47;16.33;;;7.10;64.80;;;;;;5042452;28;20305;-78
2022/03/14 05:23:47;;;;;;;28.27;15.73;;;7.10;64.70;;;;;;5042546;28;20399;-77
2022/03/14 05:26:16;;;;;;;32.20;15.80;;;7.10;64.70;;;;;;5043391;28;20253;-77
2022/03/14 05:28:44;;;;;;;35.47;16.63;;;7.20;64.60;;;;;;5044015;28;21682;-77
2022/03/14 05:31:12;;;;;;;29.47;14.90;;;7.20;64.50;;;;;;5043870;28;20205;-77
2022/03/14 05:33:41;;;;;;;29.45;17.02;;;7.20;64.50;;;;;;5041644;28;20453;-78
2022/03/14 05:36:09;;;;;;;31.53;16.27;;;7.30;65.50;;;;;;5043818;28;20204;-78
2022/03/14 05:38:37;;;;;;;27.13;15.87;;;7.30;65.60;;;;;;5043378;28;20214;-78
2022/03/14 05:41:07;;;;;;;33.00;15.53;;;7.30;65.60;;;;;;5042783;28;20937;-78
2022/03/14 05:43:37;;;;;;;26.60;15.20;;;7.40;65.50;;;;;;5043394;28;20561;-78
2022/03/14 05:46:06;;;;;;;55.57;24.73;;;7.40;65.30;;;;;;5042369;28;20200;-77
2022/03/14 05:48:35;;;;;;;40.10;20.93;;;7.40;65.20;;;;;;5043700;28;20267;-77
2022/03/14 05:51:04;;;;;;;31.53;15.50;;;7.50;65.00;;;;;;5043384;28;20392;-77
2022/03/14 05:53:33;;;;;;;26.97;15.37;;;7.50;65.00;;;;;;5043646;28;20204;-77
2022/03/14 05:56:01;;;;;;;30.40;14.03;;;7.60;65.00;;;;;;5043100;28;20804;-77
2022/03/14 05:58:37;;;;;;;29.50;15.67;;;7.60;64.90;;;;;;5042639;28;20197;-78
2022/03/14 06:01:05;;;;;;;25.07;14.40;;;7.60;64.80;;;;;;4999715;28;20201;-77
2022/03/14 06:03:34;;;;;;;27.60;14.97;;;7.60;64.60;;;;;;5039929;28;21626;-77
2022/03/14 06:06:03;;;;;;;35.03;16.40;;;7.70;64.70;;;;;;5042639;28;20250;-77
2022/03/14 06:08:31;;;;;;;30.57;15.00;;;7.70;64.40;;;;;;5042698;28;20605;-78
2022/03/14 06:10:59;;;;;;;27.43;15.03;;;7.80;64.40;;;;;;5042679;28;20640;-77
2022/03/14 06:13:27;;;;;;;27.40;14.40;;;7.80;64.00;;;;;;5043108;28;20202;-78
2022/03/14 06:15:57;;;;;;;25.27;15.10;;;7.90;63.80;;;;;;5042573;28;20200;-79
2022/03/14 06:18:26;;;;;;;28.60;14.93;;;7.90;63.70;;;;;;5043084;28;20288;-78
2022/03/14 06:20:54;;;;;;;25.80;14.13;;;7.90;63.40;;;;;;5042657;28;20205;-78
2022/03/14 06:23:22;;;;;;;26.93;13.57;;;8.10;63.60;;;;;;5043344;28;20202;-78
2022/03/14 06:25:51;;;;;;;21.67;12.60;;;8.10;63.30;;;;;;5046807;28;20205;-78
2022/03/14 06:28:21;;;;;;;22.97;11.90;;;8.10;63.00;;;;;;5045598;28;20222;-77
2022/03/14 06:30:49;;;;;;;20.90;11.37;;;8.20;62.50;;;;;;5047244;28;20197;-78
2022/03/14 06:33:19;;;;;;;23.43;12.70;;;8.20;62.30;;;;;;5047500;28;20236;-78
2022/03/14 06:35:48;;;;;;;22.97;12.33;;;8.30;62.30;;;;;;5047543;28;20721;-78
2022/03/14 06:38:16;;;;;;;20.47;11.70;;;8.30;61.80;;;;;;5046460;28;20186;-78
2022/03/14 06:40:44;;;;;;;19.93;11.70;;;8.40;61.10;;;;;;5046505;28;20205;-78
2022/03/14 06:43:13;;;;;;;24.87;13.10;;;8.50;61.30;;;;;;5046486;28;20204;-78
2022/03/14 06:45:41;;;;;;;23.00;11.97;;;8.60;61.40;;;;;;5047493;28;20652;-78
2022/03/14 06:48:09;;;;;;;22.97;12.83;;;8.60;61.10;;;;;;5047036;28;20218;-78
2022/03/14 06:50:39;;;;;;;24.00;12.57;;;8.70;61.10;;;;;;5047271;28;20190;-78
2022/03/14 06:53:08;;;;;;;21.67;12.90;;;8.80;60.80;;;;;;5047177;28;20579;-79
2022/03/14 06:55:36;;;;;;;15.87;9.80;;;8.90;60.50;;;;;;5046947;28;20210;-78
2022/03/14 06:58:05;;;;;;;19.13;9.87;;;8.90;60.20;;;;;;5046548;28;20636;-78
2022/03/14 07:00:34;;;;;;;18.57;9.57;;;9.00;59.90;;;;;;5045553;28;20916;-79
2022/03/14 07:03:02;;;;;;;14.77;8.53;;;9.00;59.10;;;;;;5044877;28;20226;-80
2022/03/14 07:05:31;;;;;;;14.63;9.17;;;9.10;59.30;;;;;;5046672;28;20566;-80
2022/03/14 07:08:00;;;;;;;19.87;9.20;;;9.10;59.20;;;;;;5043539;28;21217;-77
2022/03/14 07:10:30;;;;;;;16.63;9.00;;;9.10;59.10;;;;;;5045183;28;20195;-78
2022/03/14 07:12:59;;;;;;;16.83;9.43;;;9.20;59.20;;;;;;5046956;28;20207;-79
2022/03/14 07:15:27;;;;;;;16.37;9.73;;;9.20;59.20;;;;;;5046533;28;20648;-79
2022/03/14 07:17:55;;;;;;;17.43;10.03;;;9.30;59.10;;;;;;5044441;28;20428;-79
2022/03/14 07:20:25;;;;;;;19.93;9.30;;;9.30;59.10;;;;;;5045709;28;20222;-79
2022/03/14 07:22:55;;;;;;;19.83;10.07;;;9.40;59.10;;;;;;5044277;28;20215;-77
2022/03/14 07:25:32;;;;;;;21.37;10.43;;;9.40;59.00;;;;;;5046696;28;20252;-79
2022/03/14 07:28:03;;;;;;;20.80;10.00;;;9.50;59.40;;;;;;5044226;28;20199;-78
2022/03/14 07:30:32;;;;;;;19.17;10.53;;;9.50;58.80;;;;;;5045559;28;20198;-79
2022/03/14 07:33:00;;;;;;;19.83;11.55;;;9.60;58.70;;;;;;5044695;28;20789;-79
2022/03/14 07:35:30;;;;;;;16.57;10.13;;;9.60;58.50;;;;;;5046465;28;20383;-79
2022/03/14 07:37:59;;;;;;;18.33;10.77;;;9.60;58.50;;;;;;5043118;28;20191;-79
2022/03/14 07:40:27;;;;;;;18.07;10.23;;;9.60;58.30;;;;;;5044138;28;20289;-79
2022/03/14 07:42:59;;;;;;;17.50;10.20;;;9.70;58.30;;;;;;5044995;28;20227;-79
2022/03/14 07:45:30;;;;;;;20.20;11.00;;;9.80;57.90;;;;;;5043960;28;20452;-79
2022/03/14 07:48:05;;;;;;;17.10;10.57;;;9.80;57.60;;;;;;5043863;28;20315;-78
2022/03/14 07:50:40;;;;;;;17.47;10.60;;;9.80;57.10;;;;;;5044055;28;20248;-80
2022/03/14 07:53:09;;;;;;;16.67;9.57;;;9.90;56.50;;;;;;5045130;28;20201;-79
2022/03/14 07:55:38;;;;;;;14.30;8.77;;;9.90;56.50;;;;;;5044634;28;20605;-79
2022/03/14 07:58:08;;;;;;;18.83;10.50;;;9.90;56.40;;;;;;5043998;28;20208;-78
2022/03/14 08:00:36;;;;;;;18.60;9.67;;;9.90;56.00;;;;;;5043852;28;20201;-81
2022/03/14 08:03:05;;;;;;;18.10;10.13;;;10.00;56.30;;;;;;5044563;28;20226;-79
2022/03/14 08:05:34;;;;;;;19.03;9.93;;;10.00;55.80;;;;;;5046189;28;20202;-80
2022/03/14 08:08:08;;;;;;;19.00;11.13;;;10.00;55.80;;;;;;5045956;28;20195;-78
2022/03/14 08:10:39;;;;;;;17.60;10.20;;;10.10;55.80;;;;;;5043827;28;20207;-79
2022/03/14 08:13:09;;;;;;;17.63;11.00;;;10.10;55.70;;;;;;5043102;28;21146;-79
2022/03/14 08:15:37;;;;;;;16.63;9.97;;;10.10;55.30;;;;;;5046317;28;20484;-78
2022/03/14 08:18:07;;;;;;;19.03;9.73;;;10.20;55.40;;;;;;5044649;28;20579;-82
2022/03/14 08:20:37;;;;;;;17.10;9.80;;;10.20;55.30;;;;;;5044734;28;20196;-79
2022/03/14 08:23:06;;;;;;;17.87;9.60;;;10.30;55.20;;;;;;5042884;28;20213;-80
2022/03/14 08:25:35;;;;;;;16.83;8.70;;;10.30;54.90;;;;;;5041432;28;20208;-81
2022/03/14 08:28:04;;;;;;;18.83;10.68;;;10.40;55.00;;;;;;5040999;28;20426;-80
2022/03/14 08:30:34;;;;;;;22.17;10.70;;;10.40;55.10;;;;;;5039922;28;20287;-80
2022/03/14 08:33:03;;;;;;;23.03;11.27;;;10.50;55.20;;;;;;5041886;28;20589;-81
2022/03/14 08:35:32;;;;;;;18.33;10.20;;;10.50;55.20;;;;;;5042788;28;20203;-80
2022/03/14 08:38:01;;;;;;;18.43;10.10;;;10.60;55.10;;;;;;5041003;28;20543;-80
2022/03/14 08:40:29;;;;;;;17.07;9.27;;;10.70;54.40;;;;;;5041526;28;20191;-81
2022/03/14 08:42:58;;;;;;;16.20;8.63;;;10.70;53.60;;;;;;5042459;28;20202;-80
2022/03/14 08:45:28;;;;;;;18.47;9.43;;;10.70;53.70;;;;;;5042553;28;20202;-79
2022/03/14 08:47:57;;;;;;;15.53;8.57;;;10.80;53.50;;;;;;5041186;28;20202;-80
2022/03/14 08:50:25;;;;;;;17.83;9.53;;;10.80;53.10;;;;;;5042066;28;20222;-81
2022/03/14 08:52:54;;;;;;;15.97;8.03;;;10.90;53.10;;;;;;5041821;28;20615;-81
2022/03/14 08:55:22;;;;;;;14.63;8.57;;;10.90;52.80;;;;;;5042417;28;20712;-79
2022/03/14 08:57:51;;;;;;;16.30;9.33;;;11.00;53.40;;;;;;5041655;28;20619;-82
2022/03/14 09:00:21;;;;;;;16.57;9.33;;;11.10;52.80;;;;;;5044040;28;20222;-80
2022/03/14 09:02:50;;;;;;;16.42;9.07;;;11.10;52.60;;;;;;5041371;28;20547;-79
2022/03/14 09:05:19;;;;;;;17.37;9.30;;;11.20;52.30;;;;;;5042014;28;20195;-81
2022/03/14 09:07:48;;;;;;;14.07;8.30;;;11.30;52.30;;;;;;5041746;28;20195;-80
2022/03/14 09:10:17;;;;;;;16.57;8.73;;;11.40;52.30;;;;;;5041847;28;20227;-80
2022/03/14 09:12:49;;;;;;;14.63;8.50;;;11.40;52.10;;;;;;5042958;28;21603;-80
2022/03/14 09:15:18;;;;;;;16.60;8.50;;;11.50;51.80;;;;;;5042220;28;21239;-80
2022/03/14 09:17:48;;;;;;;13.60;8.03;;;11.60;52.10;;;;;;5042219;28;20195;-84
2022/03/14 09:20:17;;;;;;;12.40;8.23;;;11.80;52.40;;;;;;5041793;28;20206;-80
2022/03/14 09:22:48;;;;;;;15.43;8.50;;;11.90;51.70;;;;;;5042107;28;20630;-79
2022/03/14 09:25:17;;;;;;;16.03;8.30;;;11.90;51.20;;;;;;5041576;28;20199;-81
2022/03/14 09:27:45;;;;;;;14.47;8.90;;;12.00;51.50;;;;;;5041473;28;20191;-79
2022/03/14 09:30:16;;;;;;;15.60;7.93;;;12.10;51.60;;;;;;5042290;28;20784;-80
2022/03/14 09:32:44;;;;;;;14.43;8.50;;;12.20;51.60;;;;;;5042426;28;20737;-81
2022/03/14 09:35:14;;;;;;;14.87;7.83;;;12.20;50.90;;;;;;5040725;28;20573;-81
2022/03/14 09:37:44;;;;;;;15.33;8.43;;;12.10;51.20;;;;;;5041884;28;20205;-80
2022/03/14 09:40:17;;;;;;;17.50;9.45;;;12.10;51.30;;;;;;5040279;28;20516;-81
2022/03/14 09:42:47;;;;;;;16.60;8.27;;;12.10;51.30;;;;;;5042063;28;20195;-81
2022/03/14 09:45:15;;;;;;;12.70;8.63;;;12.10;51.30;;;;;;5043552;28;20574;-81
2022/03/14 09:47:45;;;;;;;12.00;7.60;;;12.10;50.60;;;;;;5042812;28;20206;-80
2022/03/14 09:50:15;;;;;;;13.10;8.27;;;12.10;50.80;;;;;;5042691;28;20313;-80
2022/03/14 09:52:45;;;;;;;16.43;9.33;;;12.20;50.60;;;;;;5041652;28;20205;-84
2022/03/14 09:55:16;;;;;;;14.20;8.47;;;12.30;50.60;;;;;;5043348;28;20742;-81
2022/03/14 09:57:44;;;;;;;13.17;7.80;;;12.30;50.90;;;;;;5040762;28;20194;-82
2022/03/14 10:00:14;;;;;;;21.70;8.53;;;12.40;50.90;;;;;;5041529;28;20206;-83
2022/03/14 10:02:42;;;;;;;14.77;7.80;;;12.50;50.50;;;;;;5043988;28;20227;-80
2022/03/14 10:05:13;;;;;;;14.87;8.30;;;12.60;50.50;;;;;;5042966;28;20586;-82
2022/03/14 10:07:43;;;;;;;15.77;8.30;;;12.60;50.60;;;;;;5042357;28;20548;-80
2022/03/14 10:10:15;;;;;;;13.10;7.93;;;12.60;49.70;;;;;;5042342;28;20206;-81
2022/03/14 10:12:45;;;;;;;12.70;8.73;;;12.60;48.70;;;;;;5041621;28;20226;-80
2022/03/14 10:15:14;;;;;;;16.65;9.63;;;12.70;49.00;;;;;;5042083;28;20437;-79
2022/03/14 10:17:42;;;;;;;14.93;7.67;;;12.70;48.00;;;;;;5041971;28;20211;-82
2022/03/14 10:20:12;;;;;;;14.57;8.73;;;12.70;48.00;;;;;;5042105;28;20280;-80
2022/03/14 10:22:41;;;;;;;11.77;8.00;;;12.80;48.60;;;;;;5041434;28;20264;-81
2022/03/14 10:25:13;;;;;;;13.03;8.37;;;12.80;48.00;;;;;;5043348;28;20203;-81
2022/03/14 10:27:45;;;;;;;14.70;8.53;;;12.80;48.10;;;;;;5043958;28;20828;-81
2022/03/14 10:30:26;;;;;;;15.33;8.80;;;12.90;48.40;;;;;;5043017;28;20212;-81
2022/03/14 10:33:01;;;;;;;14.83;7.77;;;12.90;48.20;;;;;;5042737;28;20198;-80
2022/03/14 10:35:35;;;;;;;15.83;8.20;;;12.90;47.80;;;;;;5043898;28;20194;-80
2022/03/14 10:38:05;;;;;;;15.40;8.47;;;12.90;47.30;;;;;;5043054;28;20862;-80
2022/03/14 10:40:34;;;;;;;13.00;7.87;;;12.90;47.20;;;;;;5044211;28;20198;-79
2022/03/14 10:43:07;;;;;;;13.30;8.37;;;13.00;47.60;;;;;;5044863;28;20552;-77
2022/03/14 10:45:36;;;;;;;17.73;9.60;;;13.00;48.00;;;;;;5043990;28;20247;-78
2022/03/14 10:48:05;;;;;;;15.10;9.10;;;13.00;47.20;;;;;;5043919;28;20668;-77
2022/03/14 10:50:36;;;;;;;15.60;9.17;;;13.00;47.70;;;;;;5043198;28;21438;-78
2022/03/14 10:53:09;;;;;;;16.33;9.40;;;13.10;47.80;;;;;;5041187;28;20884;-77
2022/03/14 10:55:40;;;;;;;16.20;9.50;;;13.20;47.80;;;;;;5043938;28;20207;-77
2022/03/14 10:58:11;;;;;;;15.67;9.47;;;13.30;47.50;;;;;;5041921;28;20203;-78
2022/03/14 11:00:53;;;;;;;16.70;8.90;;;13.30;47.60;;;;;;5041546;28;20195;-77
2022/03/14 11:03:27;;;;;;;14.40;8.80;;;13.50;47.90;;;;;;5041190;28;20222;-77
2022/03/14 11:05:59;;;;;;;17.20;9.33;;;13.50;47.70;;;;;;5042323;28;20215;-79
2022/03/14 11:08:32;;;;;;;14.40;9.17;;;13.60;47.40;;;;;;5042377;28;20207;-79
2022/03/14 11:11:04;;;;;;;13.33;8.73;;;13.60;47.70;;;;;;5046891;28;22126;-78
2022/03/14 11:13:37;;;;;;;17.30;9.37;;;13.60;47.20;;;;;;5046345;28;20195;-80
2022/03/14 11:16:06;;;;;;;12.30;8.43;;;13.70;47.10;;;;;;5047762;28;20688;-77
2022/03/14 11:18:37;;;;;;;13.83;8.77;;;13.70;46.50;;;;;;5046373;28;20206;-77
2022/03/14 11:21:08;;;;;;;16.30;9.37;;;13.70;47.00;;;;;;5045598;28;20704;-76
2022/03/14 11:23:38;;;;;;;15.70;9.17;;;13.70;45.90;;;;;;5046733;28;20333;-77
2022/03/14 11:26:11;;;;;;;13.37;9.20;;;13.70;45.30;;;;;;5047323;28;20220;-77
2022/03/14 11:28:42;;;;;;;14.93;9.60;;;13.70;45.40;;;;;;5046287;28;20194;-76
2022/03/14 11:31:10;;;;;;;13.60;8.80;;;13.70;45.90;;;;;;5045552;28;20307;-77
2022/03/14 11:33:44;;;;;;;17.77;9.87;;;13.70;46.00;;;;;;5046557;28;20278;-78
2022/03/14 11:36:13;;;;;;;16.30;9.67;;;13.80;45.60;;;;;;5046100;28;20205;-79
2022/03/14 11:38:43;;;;;;;14.30;9.67;;;13.80;44.80;;;;;;5047416;28;20277;-78
2022/03/14 11:41:12;;;;;;;17.17;9.50;;;13.80;45.30;;;;;;5044895;28;20708;-78
2022/03/14 11:43:42;;;;;;;15.93;9.70;;;13.90;45.20;;;;;;5046326;28;20206;-82
2022/03/14 11:46:31;;;;;;;19.47;9.13;;;14.00;44.80;;;;;;5045653;28;20290;-81
2022/03/14 11:49:13;;;;;;;15.30;9.77;;;14.00;44.50;;;;;;5045396;28;20247;-79
2022/03/14 11:51:41;;;;;;;17.27;9.40;;;14.00;44.90;;;;;;5044460;28;20202;-80
2022/03/14 11:54:11;;;;;;;18.20;10.13;;;14.10;45.10;;;;;;5045245;28;20207;-80
2022/03/14 11:56:40;;;;;;;16.20;9.60;;;14.20;44.70;;;;;;5045900;28;20200;-79
2022/03/14 11:59:25;;;;;;;19.97;9.07;;;14.30;45.00;;;;;;5044960;28;20620;-80
2022/03/14 12:01:55;;;;;;;17.73;9.60;;;14.30;44.80;;;;;;5045140;28;20305;-80
2022/03/14 12:04:31;;;;;;;15.50;9.33;;;14.20;44.20;;;;;;5045122;28;20199;-81
2022/03/14 12:07:08;;;;;;;14.50;8.80;;;14.20;44.70;;;;;;5045219;28;20588;-79
2022/03/14 12:09:48;;;;;;;13.73;8.77;;;14.30;44.20;;;;;;5044908;28;20205;-80
2022/03/14 12:12:49;;;;;;;14.33;9.43;;;14.30;44.50;;;;;;5044579;28;20242;-80
2022/03/14 12:15:38;;;;;;;17.40;9.80;;;14.30;43.60;;;;;;5043095;28;20210;-82
2022/03/14 12:18:37;;;;;;;15.43;9.67;;;14.20;43.70;;;;;;5044427;28;20214;-83
2022/03/14 12:21:43;;;;;;;15.47;9.37;;;14.20;43.80;;;;;;5043241;28;20786;-81
2022/03/14 12:24:19;;;;;;;16.07;9.37;;;14.30;43.80;;;;;;5043188;28;20198;-81
2022/03/14 12:26:49;;;;;;;14.77;9.97;;;14.30;43.70;;;;;;5044933;28;20194;-81
2022/03/14 12:29:36;;;;;;;16.23;9.20;;;14.30;44.20;;;;;;5043703;28;20214;-80
2022/03/14 12:32:32;;;;;;;17.13;11.10;;;14.30;44.30;;;;;;5042508;28;20242;-81
2022/03/14 12:35:03;;;;;;;23.53;10.30;;;14.20;44.50;;;;;;5029782;28;20276;-77
2022/03/14 12:37:43;;;;;;;14.80;8.80;;;14.00;44.10;;;;;;5044678;28;20211;-78
2022/03/14 12:40:31;;;;;;;18.60;10.10;;;13.90;44.20;;;;;;5044283;28;20190;-77
2022/03/14 12:43:12;;;;;;;20.58;10.60;;;13.90;44.30;;;;;;5043767;28;20447;-76
2022/03/14 12:45:42;;;;;;;17.50;10.53;;;14.00;45.30;;;;;;5044903;28;20195;-79
2022/03/14 12:48:24;;;;;;;15.70;9.63;;;14.10;44.70;;;;;;5044285;28;20195;-76
2022/03/14 12:51:04;;;;;;;15.60;9.80;;;14.00;44.80;;;;;;5043914;28;20753;-78